sensor_id;sensor_type;location;lat;lon;timestamp;pressure;altitude;pressure_sealevel;temperature;humidity
6194;BME280;3130;41.564;23.280;2023-04-27T00:01:42;98427.00;;;12.02;59.16
6194;BME280;3130;41.564;23.280;2023-04-27T00:04:10;98433.75;;;11.92;59.27
6194;BME280;3130;41.564;23.280;2023-04-27T00:06:38;98439.47;;;11.96;58.50
6194;BME280;3130;41.564;23.280;2023-04-27T00:09:05;98440.28;;;11.96;59.29
6194;BME280;3130;41.564;23.280;2023-04-27T00:11:32;98441.13;;;11.97;58.08
6194;BME280;3130;41.564;23.280;2023-04-27T00:13:59;98447.41;;;11.93;57.90
6194;BME280;3130;41.564;23.280;2023-04-27T00:16:26;98440.53;;;11.93;57.81
6194;BME280;3130;41.564;23.280;2023-04-27T00:18:53;98444.13;;;11.91;57.50
6194;BME280;3130;41.564;23.280;2023-04-27T00:21:22;98417.84;;;11.87;58.00
6194;BME280;3130;41.564;23.280;2023-04-27T00:23:49;98436.31;;;11.92;57.47
6194;BME280;3130;41.564;23.280;2023-04-27T00:26:16;98430.56;;;11.89;57.67
6194;BME280;3130;41.564;23.280;2023-04-27T00:28:43;98423.91;;;11.86;57.27
6194;BME280;3130;41.564;23.280;2023-04-27T00:31:10;98432.88;;;11.81;57.51
6194;BME280;3130;41.564;23.280;2023-04-27T00:33:37;98415.41;;;11.62;57.84
6194;BME280;3130;41.564;23.280;2023-04-27T00:36:04;98434.16;;;11.75;57.64
6194;BME280;3130;41.564;23.280;2023-04-27T00:38:33;98442.06;;;11.72;58.54
6194;BME280;3130;41.564;23.280;2023-04-27T00:41:00;98434.91;;;11.65;57.46
6194;BME280;3130;41.564;23.280;2023-04-27T00:43:27;98438.28;;;11.65;57.10
6194;BME280;3130;41.564;23.280;2023-04-27T00:45:55;98432.44;;;11.63;57.62
6194;BME280;3130;41.564;23.280;2023-04-27T00:48:22;98444.03;;;11.69;56.96
6194;BME280;3130;41.564;23.280;2023-04-27T00:50:50;98453.59;;;11.67;57.32
6194;BME280;3130;41.564;23.280;2023-04-27T00:53:17;98451.03;;;11.67;56.57
6194;BME280;3130;41.564;23.280;2023-04-27T00:55:46;98446.50;;;11.70;56.93
6194;BME280;3130;41.564;23.280;2023-04-27T00:58:13;98454.75;;;11.63;55.95
6194;BME280;3130;41.564;23.280;2023-04-27T01:00:40;98460.59;;;11.65;56.63
6194;BME280;3130;41.564;23.280;2023-04-27T01:03:07;98458.75;;;11.67;55.72
6194;BME280;3130;41.564;23.280;2023-04-27T01:05:36;98433.72;;;11.45;55.64
6194;BME280;3130;41.564;23.280;2023-04-27T01:08:03;98430.22;;;11.46;55.26
6194;BME280;3130;41.564;23.280;2023-04-27T01:10:30;98465.94;;;11.62;55.46
6194;BME280;3130;41.564;23.280;2023-04-27T01:12:59;98468.31;;;11.65;55.73
6194;BME280;3130;41.564;23.280;2023-04-27T01:15:26;98478.28;;;11.57;55.00
6194;BME280;3130;41.564;23.280;2023-04-27T01:17:57;98466.75;;;11.62;55.23
6194;BME280;3130;41.564;23.280;2023-04-27T01:20:24;98475.84;;;11.55;54.46
6194;BME280;3130;41.564;23.280;2023-04-27T01:22:54;98468.31;;;11.52;54.87
6194;BME280;3130;41.564;23.280;2023-04-27T01:25:23;98477.06;;;11.50;54.94
6194;BME280;3130;41.564;23.280;2023-04-27T01:27:50;98477.16;;;11.48;54.55
6194;BME280;3130;41.564;23.280;2023-04-27T01:30:18;98474.38;;;11.51;54.42
6194;BME280;3130;41.564;23.280;2023-04-27T01:32:46;98477.28;;;11.47;54.02
6194;BME280;3130;41.564;23.280;2023-04-27T01:35:13;98484.47;;;11.42;54.20
6194;BME280;3130;41.564;23.280;2023-04-27T01:37:41;98487.44;;;11.36;53.54
6194;BME280;3130;41.564;23.280;2023-04-27T01:40:08;98491.44;;;11.40;53.09
6194;BME280;3130;41.564;23.280;2023-04-27T01:42:37;98489.81;;;11.39;53.78
6194;BME280;3130;41.564;23.280;2023-04-27T01:45:05;98492.06;;;11.43;53.10
6194;BME280;3130;41.564;23.280;2023-04-27T01:47:33;98484.59;;;11.40;53.42
6194;BME280;3130;41.564;23.280;2023-04-27T01:50:00;98492.72;;;11.34;53.21
6194;BME280;3130;41.564;23.280;2023-04-27T01:52:27;98492.28;;;11.40;53.06
6194;BME280;3130;41.564;23.280;2023-04-27T01:54:54;98496.09;;;11.35;53.00
6194;BME280;3130;41.564;23.280;2023-04-27T01:57:21;98508.63;;;11.39;52.56
6194;BME280;3130;41.564;23.280;2023-04-27T01:59:49;98505.34;;;11.37;53.00
6194;BME280;3130;41.564;23.280;2023-04-27T02:02:16;98501.84;;;11.38;52.12
6194;BME280;3130;41.564;23.280;2023-04-27T02:04:43;98472.41;;;11.19;52.36
6194;BME280;3130;41.564;23.280;2023-04-27T02:07:10;98508.09;;;11.34;51.62
6194;BME280;3130;41.564;23.280;2023-04-27T02:09:37;98509.84;;;11.34;52.24
6194;BME280;3130;41.564;23.280;2023-04-27T02:12:04;98509.84;;;11.34;51.84
6194;BME280;3130;41.564;23.280;2023-04-27T02:14:31;98507.19;;;11.35;51.18
6194;BME280;3130;41.564;23.280;2023-04-27T02:17:00;98513.59;;;11.17;52.71
6194;BME280;3130;41.564;23.280;2023-04-27T02:19:27;98522.41;;;11.26;51.60
6194;BME280;3130;41.564;23.280;2023-04-27T02:21:54;98526.81;;;11.24;52.43
6194;BME280;3130;41.564;23.280;2023-04-27T02:24:21;98519.00;;;11.25;52.01
6194;BME280;3130;41.564;23.280;2023-04-27T02:26:48;98533.06;;;11.20;52.66
6194;BME280;3130;41.564;23.280;2023-04-27T02:29:15;98522.41;;;11.13;52.55
6194;BME280;3130;41.564;23.280;2023-04-27T02:31:43;98531.94;;;11.24;51.18
6194;BME280;3130;41.564;23.280;2023-04-27T02:34:11;98481.28;;;10.90;51.05
6194;BME280;3130;41.564;23.280;2023-04-27T02:36:38;98536.97;;;11.25;50.51
6194;BME280;3130;41.564;23.280;2023-04-27T02:39:05;98545.50;;;11.26;50.73
6194;BME280;3130;41.564;23.280;2023-04-27T02:41:32;98553.13;;;11.15;50.92
6194;BME280;3130;41.564;23.280;2023-04-27T02:43:59;98547.16;;;11.14;50.85
6194;BME280;3130;41.564;23.280;2023-04-27T02:46:26;98557.13;;;11.06;51.64
6194;BME280;3130;41.564;23.280;2023-04-27T02:48:54;98540.69;;;10.97;51.20
6194;BME280;3130;41.564;23.280;2023-04-27T02:51:22;98553.19;;;11.01;51.31
6194;BME280;3130;41.564;23.280;2023-04-27T02:53:51;98534.13;;;10.93;51.38
6194;BME280;3130;41.564;23.280;2023-04-27T02:56:18;98541.09;;;10.91;51.01
6194;BME280;3130;41.564;23.280;2023-04-27T02:58:45;98562.47;;;11.03;51.86
6194;BME280;3130;41.564;23.280;2023-04-27T03:01:13;98528.06;;;10.81;51.67
6194;BME280;3130;41.564;23.280;2023-04-27T03:03:44;98569.53;;;11.00;51.39
6194;BME280;3130;41.564;23.280;2023-04-27T03:06:11;98568.78;;;10.98;51.51
6194;BME280;3130;41.564;23.280;2023-04-27T03:08:39;98571.16;;;11.01;51.83
6194;BME280;3130;41.564;23.280;2023-04-27T03:11:06;98568.78;;;10.98;51.81
6194;BME280;3130;41.564;23.280;2023-04-27T03:13:34;98556.59;;;10.77;51.70
6194;BME280;3130;41.564;23.280;2023-04-27T03:16:07;98546.44;;;10.63;52.07
6194;BME280;3130;41.564;23.280;2023-04-27T03:18:35;98569.59;;;10.74;51.61
6194;BME280;3130;41.564;23.280;2023-04-27T03:21:06;98566.75;;;10.78;52.25
6194;BME280;3130;41.564;23.280;2023-04-27T03:23:33;98580.69;;;10.74;52.19
6194;BME280;3130;41.564;23.280;2023-04-27T03:26:04;98572.09;;;10.75;51.64
6194;BME280;3130;41.564;23.280;2023-04-27T03:28:32;98577.31;;;10.74;51.87
6194;BME280;3130;41.564;23.280;2023-04-27T03:30:59;98579.69;;;10.89;52.54
6194;BME280;3130;41.564;23.280;2023-04-27T03:33:26;98590.66;;;10.91;52.19
6194;BME280;3130;41.564;23.280;2023-04-27T03:35:54;98585.44;;;10.93;52.30
6194;BME280;3130;41.564;23.280;2023-04-27T03:38:22;98563.56;;;10.62;52.15
6194;BME280;3130;41.564;23.280;2023-04-27T03:40:49;98602.84;;;10.75;52.92
6194;BME280;3130;41.564;23.280;2023-04-27T03:43:18;98598.00;;;10.58;52.59
6194;BME280;3130;41.564;23.280;2023-04-27T03:45:46;98609.91;;;10.59;52.93
6194;BME280;3130;41.564;23.280;2023-04-27T03:48:13;98603.94;;;10.59;52.64
6194;BME280;3130;41.564;23.280;2023-04-27T03:50:40;98582.47;;;10.47;52.31
6194;BME280;3130;41.564;23.280;2023-04-27T03:53:08;98616.38;;;10.65;52.19
6194;BME280;3130;41.564;23.280;2023-04-27T03:55:37;98616.47;;;10.63;52.78
6194;BME280;3130;41.564;23.280;2023-04-27T03:58:04;98629.00;;;10.68;53.02
6194;BME280;3130;41.564;23.280;2023-04-27T04:00:32;98621.41;;;10.66;52.28
6194;BME280;3130;41.564;23.280;2023-04-27T04:02:59;98607.00;;;10.51;52.24
6194;BME280;3130;41.564;23.280;2023-04-27T04:05:26;98637.00;;;10.76;52.55
6194;BME280;3130;41.564;23.280;2023-04-27T04:07:55;98612.78;;;10.67;52.46
6194;BME280;3130;41.564;23.280;2023-04-27T04:10:22;98640.81;;;10.83;52.01
6194;BME280;3130;41.564;23.280;2023-04-27T04:12:49;98642.06;;;10.77;51.95
6194;BME280;3130;41.564;23.280;2023-04-27T04:15:17;98636.19;;;10.75;52.04
6194;BME280;3130;41.564;23.280;2023-04-27T04:17:46;98648.59;;;10.81;51.88
6194;BME280;3130;41.564;23.280;2023-04-27T04:20:13;98625.91;;;10.63;51.46
6194;BME280;3130;41.564;23.280;2023-04-27T04:22:41;98641.22;;;10.77;51.78
6194;BME280;3130;41.564;23.280;2023-04-27T04:25:09;98653.03;;;10.92;51.25
6194;BME280;3130;41.564;23.280;2023-04-27T04:27:36;98650.97;;;10.84;52.36
6194;BME280;3130;41.564;23.280;2023-04-27T04:30:03;98654.47;;;10.83;51.33
6194;BME280;3130;41.564;23.280;2023-04-27T04:32:31;98655.72;;;10.90;51.05
6194;BME280;3130;41.564;23.280;2023-04-27T04:34:59;98639.06;;;10.83;51.38
6194;BME280;3130;41.564;23.280;2023-04-27T04:37:27;98671.84;;;10.92;51.08
6194;BME280;3130;41.564;23.280;2023-04-27T04:39:54;98636.50;;;10.83;50.96
6194;BME280;3130;41.564;23.280;2023-04-27T04:42:21;98659.59;;;10.83;50.40
6194;BME280;3130;41.564;23.280;2023-04-27T04:44:48;98655.69;;;10.78;50.42
6194;BME280;3130;41.564;23.280;2023-04-27T04:47:15;98674.06;;;10.84;50.89
6194;BME280;3130;41.564;23.280;2023-04-27T04:49:43;98641.53;;;10.72;50.16
6194;BME280;3130;41.564;23.280;2023-04-27T04:52:12;98673.78;;;11.01;50.66
6194;BME280;3130;41.564;23.280;2023-04-27T04:54:39;98681.19;;;10.93;50.70
6194;BME280;3130;41.564;23.280;2023-04-27T04:57:06;98682.19;;;10.91;51.29
6194;BME280;3130;41.564;23.280;2023-04-27T04:59:33;98685.56;;;10.91;50.66
6194;BME280;3130;41.564;23.280;2023-04-27T05:02:00;98662.75;;;10.74;50.22
6194;BME280;3130;41.564;23.280;2023-04-27T05:04:27;98684.44;;;10.83;51.33
6194;BME280;3130;41.564;23.280;2023-04-27T05:06:54;98692.63;;;10.75;51.40
6194;BME280;3130;41.564;23.280;2023-04-27T05:09:22;98676.56;;;10.59;51.73
6194;BME280;3130;41.564;23.280;2023-04-27T05:11:49;98703.88;;;10.73;50.93
6194;BME280;3130;41.564;23.280;2023-04-27T05:14:16;98691.34;;;10.68;51.74
6194;BME280;3130;41.564;23.280;2023-04-27T05:16:43;98701.06;;;10.63;50.13
6194;BME280;3130;41.564;23.280;2023-04-27T05:19:13;98714.72;;;10.64;50.76
6194;BME280;3130;41.564;23.280;2023-04-27T05:21:42;98693.91;;;10.68;50.97
6194;BME280;3130;41.564;23.280;2023-04-27T05:24:10;98703.41;;;10.80;50.21
6194;BME280;3130;41.564;23.280;2023-04-27T05:26:38;98715.16;;;10.70;50.41
6194;BME280;3130;41.564;23.280;2023-04-27T05:29:05;98707.09;;;10.76;50.11
6194;BME280;3130;41.564;23.280;2023-04-27T05:31:32;98708.44;;;10.82;50.47
6194;BME280;3130;41.564;23.280;2023-04-27T05:33:59;98710.50;;;10.89;50.05
6194;BME280;3130;41.564;23.280;2023-04-27T05:36:26;98717.03;;;10.81;50.06
6194;BME280;3130;41.564;23.280;2023-04-27T05:38:53;98723.53;;;10.86;49.70
6194;BME280;3130;41.564;23.280;2023-04-27T05:41:20;98720.38;;;10.95;49.18
6194;BME280;3130;41.564;23.280;2023-04-27T05:43:49;98718.00;;;10.92;48.94
6194;BME280;3130;41.564;23.280;2023-04-27T05:46:18;98673.31;;;10.70;48.99
6194;BME280;3130;41.564;23.280;2023-04-27T05:48:45;98707.50;;;10.83;48.81
6194;BME280;3130;41.564;23.280;2023-04-27T05:51:12;98724.84;;;10.79;48.56
6194;BME280;3130;41.564;23.280;2023-04-27T05:53:39;98716.44;;;10.90;49.04
6194;BME280;3130;41.564;23.280;2023-04-27T05:56:07;98718.25;;;11.02;49.13
6194;BME280;3130;41.564;23.280;2023-04-27T05:58:36;98725.84;;;11.15;48.48
6194;BME280;3130;41.564;23.280;2023-04-27T06:03:50;98722.31;;;11.43;47.59
6194;BME280;3130;41.564;23.280;2023-04-27T06:06:17;98734.25;;;11.56;47.00
6194;BME280;3130;41.564;23.280;2023-04-27T06:08:44;98731.19;;;11.64;47.24
6194;BME280;3130;41.564;23.280;2023-04-27T06:11:11;98727.97;;;11.60;46.67
6194;BME280;3130;41.564;23.280;2023-04-27T06:13:38;98733.31;;;11.82;47.24
6194;BME280;3130;41.564;23.280;2023-04-27T06:16:06;98726.94;;;12.00;46.38
6194;BME280;3130;41.564;23.280;2023-04-27T06:18:33;98734.44;;;12.03;45.88
6194;BME280;3130;41.564;23.280;2023-04-27T06:21:00;98725.88;;;12.51;45.13
6194;BME280;3130;41.564;23.280;2023-04-27T06:23:28;98727.97;;;13.50;42.94
6194;BME280;3130;41.564;23.280;2023-04-27T06:25:55;98686.84;;;14.04;40.06
6194;BME280;3130;41.564;23.280;2023-04-27T06:28:23;98718.53;;;14.70;39.87
6194;BME280;3130;41.564;23.280;2023-04-27T06:30:50;98727.69;;;15.05;37.69
6194;BME280;3130;41.564;23.280;2023-04-27T06:33:18;98728.06;;;15.52;37.80
6194;BME280;3130;41.564;23.280;2023-04-27T06:35:45;98721.97;;;15.83;37.17
6194;BME280;3130;41.564;23.280;2023-04-27T06:38:12;98733.31;;;16.21;36.17
6194;BME280;3130;41.564;23.280;2023-04-27T06:40:39;98720.16;;;17.30;34.62
6194;BME280;3130;41.564;23.280;2023-04-27T06:43:06;98698.03;;;17.26;33.15
6194;BME280;3130;41.564;23.280;2023-04-27T06:45:33;98725.06;;;17.88;33.22
6194;BME280;3130;41.564;23.280;2023-04-27T06:48:00;98729.38;;;18.43;32.17
6194;BME280;3130;41.564;23.280;2023-04-27T06:50:29;98727.56;;;18.70;31.43
6194;BME280;3130;41.564;23.280;2023-04-27T06:52:56;98730.63;;;19.35;30.43
6194;BME280;3130;41.564;23.280;2023-04-27T06:55:23;98731.38;;;20.22;29.14
6194;BME280;3130;41.564;23.280;2023-04-27T06:57:50;98732.56;;;20.35;28.54
6194;BME280;3130;41.564;23.280;2023-04-27T07:00:18;98728.78;;;20.71;27.90
6194;BME280;3130;41.564;23.280;2023-04-27T07:02:45;98714.03;;;21.03;27.60
6194;BME280;3130;41.564;23.280;2023-04-27T07:05:12;98716.06;;;20.76;27.70
6194;BME280;3130;41.564;23.280;2023-04-27T07:07:40;98711.56;;;22.28;26.55
6194;BME280;3130;41.564;23.280;2023-04-27T07:10:08;98715.16;;;21.01;27.15
6194;BME280;3130;41.564;23.280;2023-04-27T07:12:35;98710.47;;;21.28;27.36
6194;BME280;3130;41.564;23.280;2023-04-27T07:15:03;98718.88;;;20.33;28.22
6194;BME280;3130;41.564;23.280;2023-04-27T07:17:31;98711.91;;;20.41;27.60
6194;BME280;3130;41.564;23.280;2023-04-27T07:19:58;98711.34;;;20.22;28.59
6194;BME280;3130;41.564;23.280;2023-04-27T07:22:25;98708.81;;;20.38;28.74
6194;BME280;3130;41.564;23.280;2023-04-27T07:24:54;98701.97;;;18.93;29.74
6194;BME280;3130;41.564;23.280;2023-04-27T07:27:21;98705.63;;;18.55;30.89
6194;BME280;3130;41.564;23.280;2023-04-27T07:29:49;98707.53;;;18.09;31.30
6194;BME280;3130;41.564;23.280;2023-04-27T07:32:15;98704.00;;;19.16;30.09
6194;BME280;3130;41.564;23.280;2023-04-27T07:34:43;98704.25;;;21.21;27.95
6194;BME280;3130;41.564;23.280;2023-04-27T07:37:10;98708.97;;;20.86;27.23
6194;BME280;3130;41.564;23.280;2023-04-27T07:39:37;98702.16;;;21.25;27.83
6194;BME280;3130;41.564;23.280;2023-04-27T07:42:05;98698.69;;;22.64;26.37
6194;BME280;3130;41.564;23.280;2023-04-27T07:44:33;98715.63;;;23.80;24.38
6194;BME280;3130;41.564;23.280;2023-04-27T07:47:00;98680.75;;;21.45;25.83
6194;BME280;3130;41.564;23.280;2023-04-27T07:49:29;98702.94;;;22.27;25.91
6194;BME280;3130;41.564;23.280;2023-04-27T07:51:56;98700.81;;;23.36;25.19
6194;BME280;3130;41.564;23.280;2023-04-27T07:54:24;98698.47;;;24.07;24.07
6194;BME280;3130;41.564;23.280;2023-04-27T07:56:51;98670.66;;;23.40;24.36
6194;BME280;3130;41.564;23.280;2023-04-27T07:59:19;98692.19;;;24.65;22.94
6194;BME280;3130;41.564;23.280;2023-04-27T08:01:46;98690.34;;;24.66;22.46
6194;BME280;3130;41.564;23.280;2023-04-27T08:04:13;98680.41;;;23.46;24.26
6194;BME280;3130;41.564;23.280;2023-04-27T08:06:41;98689.69;;;21.90;25.72
6194;BME280;3130;41.564;23.280;2023-04-27T08:09:08;98693.44;;;21.80;26.64
6194;BME280;3130;41.564;23.280;2023-04-27T08:11:35;98689.75;;;21.34;26.96
6194;BME280;3130;41.564;23.280;2023-04-27T08:14:02;98694.13;;;21.02;27.52
6194;BME280;3130;41.564;23.280;2023-04-27T08:16:30;98693.00;;;20.89;28.64
6194;BME280;3130;41.564;23.280;2023-04-27T08:18:57;98684.75;;;19.52;29.17
6194;BME280;3130;41.564;23.280;2023-04-27T08:21:25;98690.06;;;19.25;29.54
6194;BME280;3130;41.564;23.280;2023-04-27T08:23:52;98694.72;;;17.52;32.05
6194;BME280;3130;41.564;23.280;2023-04-27T08:26:19;98683.28;;;17.17;33.63
6194;BME280;3130;41.564;23.280;2023-04-27T08:28:46;98676.09;;;16.73;34.48
6194;BME280;3130;41.564;23.280;2023-04-27T08:31:14;98692.97;;;17.06;34.71
6194;BME280;3130;41.564;23.280;2023-04-27T08:33:43;98684.53;;;17.04;34.19
6194;BME280;3130;41.564;23.280;2023-04-27T08:36:09;98680.69;;;17.36;33.79
6194;BME280;3130;41.564;23.280;2023-04-27T08:38:36;98709.59;;;16.75;34.83
6194;BME280;3130;41.564;23.280;2023-04-27T08:41:04;98617.94;;;16.19;33.93
6194;BME280;3130;41.564;23.280;2023-04-27T08:43:34;98670.91;;;15.76;36.15
6194;BME280;3130;41.564;23.280;2023-04-27T08:46:01;98652.97;;;15.84;36.09
6194;BME280;3130;41.564;23.280;2023-04-27T08:48:29;98691.34;;;16.27;36.15
6194;BME280;3130;41.564;23.280;2023-04-27T08:50:58;98658.13;;;16.23;35.39
6194;BME280;3130;41.564;23.280;2023-04-27T08:53:27;98689.13;;;16.53;35.59
6194;BME280;3130;41.564;23.280;2023-04-27T08:55:55;98691.22;;;15.80;35.07
6194;BME280;3130;41.564;23.280;2023-04-27T08:58:34;98660.38;;;15.38;36.60
6194;BME280;3130;41.564;23.280;2023-04-27T09:01:04;98688.31;;;15.74;36.48
6194;BME280;3130;41.564;23.280;2023-04-27T09:03:32;98693.75;;;16.01;36.26
6194;BME280;3130;41.564;23.280;2023-04-27T09:06:02;98694.50;;;16.21;35.22
6194;BME280;3130;41.564;23.280;2023-04-27T09:08:40;98692.06;;;16.29;35.40
6194;BME280;3130;41.564;23.280;2023-04-27T09:11:07;98684.78;;;16.44;35.56
6194;BME280;3130;41.564;23.280;2023-04-27T09:13:34;98682.41;;;16.31;35.01
6194;BME280;3130;41.564;23.280;2023-04-27T09:16:02;98668.16;;;16.65;35.42
6194;BME280;3130;41.564;23.280;2023-04-27T09:18:30;98667.38;;;16.84;35.43
6194;BME280;3130;41.564;23.280;2023-04-27T09:20:59;98635.19;;;16.58;35.45
6194;BME280;3130;41.564;23.280;2023-04-27T09:23:30;98668.84;;;17.05;35.08
6194;BME280;3130;41.564;23.280;2023-04-27T09:25:59;98675.25;;;17.01;34.78
6194;BME280;3130;41.564;23.280;2023-04-27T09:28:28;98666.78;;;16.42;35.01
6194;BME280;3130;41.564;23.280;2023-04-27T09:30:58;98664.34;;;16.02;36.23
6194;BME280;3130;41.564;23.280;2023-04-27T09:33:26;98628.56;;;16.07;36.31
6194;BME280;3130;41.564;23.280;2023-04-27T09:35:55;98660.03;;;16.30;35.61
6194;BME280;3130;41.564;23.280;2023-04-27T09:38:23;98654.41;;;16.46;36.26
6194;BME280;3130;41.564;23.280;2023-04-27T09:40:53;98652.78;;;16.06;35.98
6194;BME280;3130;41.564;23.280;2023-04-27T09:43:21;98649.94;;;16.18;35.71
6194;BME280;3130;41.564;23.280;2023-04-27T09:45:49;98638.59;;;16.39;35.86
6194;BME280;3130;41.564;23.280;2023-04-27T09:48:17;98648.81;;;16.79;35.91
6194;BME280;3130;41.564;23.280;2023-04-27T09:50:44;98649.50;;;17.00;34.92
6194;BME280;3130;41.564;23.280;2023-04-27T09:53:14;98637.84;;;17.22;34.33
6194;BME280;3130;41.564;23.280;2023-04-27T09:55:44;98629.56;;;17.10;34.07
6194;BME280;3130;41.564;23.280;2023-04-27T09:58:36;98612.41;;;16.61;34.99
6194;BME280;3130;41.564;23.280;2023-04-27T10:01:13;98602.88;;;16.81;34.27
6194;BME280;3130;41.564;23.280;2023-04-27T10:03:50;98627.16;;;16.89;34.62
6194;BME280;3130;41.564;23.280;2023-04-27T10:06:55;98633.97;;;16.90;34.20
6194;BME280;3130;41.564;23.280;2023-04-27T10:09:25;98617.84;;;16.96;34.38
6194;BME280;3130;41.564;23.280;2023-04-27T10:11:53;98632.28;;;17.27;34.49
6194;BME280;3130;41.564;23.280;2023-04-27T10:14:23;98594.19;;;17.37;34.03
6194;BME280;3130;41.564;23.280;2023-04-27T10:16:52;98634.94;;;17.54;32.88
6194;BME280;3130;41.564;23.280;2023-04-27T10:19:20;98626.66;;;17.41;32.40
6194;BME280;3130;41.564;23.280;2023-04-27T10:21:55;98615.09;;;17.35;33.04
6194;BME280;3130;41.564;23.280;2023-04-27T10:24:33;98610.59;;;17.37;33.53
6194;BME280;3130;41.564;23.280;2023-04-27T10:27:03;98610.72;;;17.72;33.62
6194;BME280;3130;41.564;23.280;2023-04-27T10:29:36;98606.72;;;17.41;33.37
6194;BME280;3130;41.564;23.280;2023-04-27T10:32:08;98624.50;;;17.36;33.66
6194;BME280;3130;41.564;23.280;2023-04-27T10:34:36;98616.81;;;17.44;32.75
6194;BME280;3130;41.564;23.280;2023-04-27T10:37:04;98609.75;;;17.37;33.18
6194;BME280;3130;41.564;23.280;2023-04-27T10:39:34;98608.38;;;17.23;33.80
6194;BME280;3130;41.564;23.280;2023-04-27T10:42:03;98596.78;;;17.37;33.51
6194;BME280;3130;41.564;23.280;2023-04-27T10:44:31;98612.47;;;17.45;31.51
6194;BME280;3130;41.564;23.280;2023-04-27T10:47:10;98612.31;;;17.46;31.44
6194;BME280;3130;41.564;23.280;2023-04-27T10:49:38;98602.94;;;17.72;30.74
6194;BME280;3130;41.564;23.280;2023-04-27T10:52:05;98600.00;;;17.58;32.24
6194;BME280;3130;41.564;23.280;2023-04-27T10:54:33;98605.97;;;17.58;32.17
6194;BME280;3130;41.564;23.280;2023-04-27T10:57:05;98602.28;;;17.70;31.82
6194;BME280;3130;41.564;23.280;2023-04-27T10:59:33;98602.50;;;17.77;31.52
6194;BME280;3130;41.564;23.280;2023-04-27T11:02:01;98605.34;;;17.83;31.09
6194;BME280;3130;41.564;23.280;2023-04-27T11:04:36;98590.06;;;17.80;31.08
6194;BME280;3130;41.564;23.280;2023-04-27T11:07:04;98565.84;;;17.35;30.80
6194;BME280;3130;41.564;23.280;2023-04-27T11:09:34;98589.34;;;17.61;31.36
6194;BME280;3130;41.564;23.280;2023-04-27T11:12:05;98581.72;;;17.50;30.33
6194;BME280;3130;41.564;23.280;2023-04-27T11:14:34;98558.81;;;17.45;30.53
6194;BME280;3130;41.564;23.280;2023-04-27T11:17:04;98596.88;;;17.54;31.42
6194;BME280;3130;41.564;23.280;2023-04-27T11:19:31;98597.47;;;17.39;31.23
6194;BME280;3130;41.564;23.280;2023-04-27T11:22:03;98563.59;;;17.04;31.40
6194;BME280;3130;41.564;23.280;2023-04-27T11:24:31;98593.16;;;17.57;31.51
6194;BME280;3130;41.564;23.280;2023-04-27T11:26:58;98600.47;;;17.44;30.82
6194;BME280;3130;41.564;23.280;2023-04-27T11:29:25;98596.88;;;17.54;31.00
6194;BME280;3130;41.564;23.280;2023-04-27T11:32:04;98574.28;;;17.37;30.96
6194;BME280;3130;41.564;23.280;2023-04-27T11:34:32;98590.38;;;17.68;30.36
6194;BME280;3130;41.564;23.280;2023-04-27T11:37:04;98585.66;;;17.17;29.61
6194;BME280;3130;41.564;23.280;2023-04-27T11:39:33;98598.00;;;17.42;29.47
6194;BME280;3130;41.564;23.280;2023-04-27T11:42:19;98583.00;;;17.46;29.65
6194;BME280;3130;41.564;23.280;2023-04-27T11:44:54;98558.75;;;17.64;29.98
6194;BME280;3130;41.564;23.280;2023-04-27T11:47:24;98568.63;;;17.78;28.95
6194;BME280;3130;41.564;23.280;2023-04-27T11:49:54;98582.94;;;18.09;29.66
6194;BME280;3130;41.564;23.280;2023-04-27T11:52:21;98585.16;;;18.04;29.19
6194;BME280;3130;41.564;23.280;2023-04-27T11:54:49;98574.06;;;18.29;29.48
6194;BME280;3130;41.564;23.280;2023-04-27T11:57:17;98587.78;;;18.56;29.06
6194;BME280;3130;41.564;23.280;2023-04-27T11:59:49;98592.41;;;18.27;28.60
6194;BME280;3130;41.564;23.280;2023-04-27T12:02:17;98576.47;;;18.40;29.00
6194;BME280;3130;41.564;23.280;2023-04-27T12:04:45;98585.94;;;18.66;29.56
6194;BME280;3130;41.564;23.280;2023-04-27T12:07:13;98579.78;;;18.67;28.07
6194;BME280;3130;41.564;23.280;2023-04-27T12:09:40;98557.66;;;18.46;28.10
6194;BME280;3130;41.564;23.280;2023-04-27T12:12:08;98592.41;;;18.80;27.70
6194;BME280;3130;41.564;23.280;2023-04-27T12:14:35;98567.09;;;18.64;26.75
6194;BME280;3130;41.564;23.280;2023-04-27T12:17:02;98591.56;;;18.97;26.24
6194;BME280;3130;41.564;23.280;2023-04-27T12:19:29;98582.53;;;19.09;26.39
6194;BME280;3130;41.564;23.280;2023-04-27T12:21:57;98580.16;;;19.15;27.36
6194;BME280;3130;41.564;23.280;2023-04-27T12:24:24;98586.75;;;19.10;27.66
6194;BME280;3130;41.564;23.280;2023-04-27T12:26:51;98578.81;;;19.11;27.67
6194;BME280;3130;41.564;23.280;2023-04-27T12:29:18;98591.03;;;18.93;27.84
6194;BME280;3130;41.564;23.280;2023-04-27T12:31:46;98578.22;;;19.00;28.07
6194;BME280;3130;41.564;23.280;2023-04-27T12:34:13;98577.13;;;18.42;27.55
6194;BME280;3130;41.564;23.280;2023-04-27T12:36:41;98585.78;;;18.33;27.82
6194;BME280;3130;41.564;23.280;2023-04-27T12:39:13;98587.88;;;18.29;26.57
6194;BME280;3130;41.564;23.280;2023-04-27T12:41:41;98542.06;;;17.94;27.43
6194;BME280;3130;41.564;23.280;2023-04-27T12:44:09;98549.91;;;18.28;27.72
6194;BME280;3130;41.564;23.280;2023-04-27T12:46:37;98573.97;;;18.73;27.16
6194;BME280;3130;41.564;23.280;2023-04-27T12:49:04;98572.75;;;18.25;28.46
6194;BME280;3130;41.564;23.280;2023-04-27T12:51:31;98567.69;;;18.58;28.18
6194;BME280;3130;41.564;23.280;2023-04-27T12:53:58;98567.41;;;19.04;28.21
6194;BME280;3130;41.564;23.280;2023-04-27T12:56:27;98540.09;;;19.26;27.69
6194;BME280;3130;41.564;23.280;2023-04-27T12:58:54;98570.06;;;19.12;27.90
6194;BME280;3130;41.564;23.280;2023-04-27T13:01:22;98568.34;;;18.78;27.66
6194;BME280;3130;41.564;23.280;2023-04-27T13:03:52;98569.75;;;19.15;26.43
6194;BME280;3130;41.564;23.280;2023-04-27T13:06:20;98562.72;;;19.33;26.54
6194;BME280;3130;41.564;23.280;2023-04-27T13:08:48;98564.94;;;19.53;25.84
6194;BME280;3130;41.564;23.280;2023-04-27T13:11:16;98562.13;;;19.80;26.07
6194;BME280;3130;41.564;23.280;2023-04-27T13:13:45;98547.72;;;20.02;25.96
6194;BME280;3130;41.564;23.280;2023-04-27T13:16:13;98557.31;;;19.60;26.51
6194;BME280;3130;41.564;23.280;2023-04-27T13:18:40;98536.66;;;19.25;27.13